sensor_id;sensor_type;location;lat;lon;timestamp;P1;durP1;ratioP1;P2;durP2;ratioP2
2011;SDS011;1009;51.436;6.972;2023-07-24T00:00:38;3.30;;;2.40;;
2011;SDS011;1009;51.436;6.972;2023-07-24T00:03:06;3.53;;;2.53;;
2011;SDS011;1009;51.436;6.972;2023-07-24T00:05:32;2.93;;;1.97;;
2011;SDS011;1009;51.436;6.972;2023-07-24T00:08:01;4.50;;;2.90;;
2011;SDS011;1009;51.436;6.972;2023-07-24T00:10:28;3.70;;;2.63;;
2011;SDS011;1009;51.436;6.972;2023-07-24T00:12:54;4.47;;;2.53;;
2011;SDS011;1009;51.436;6.972;2023-07-24T00:15:21;3.43;;;2.47;;
2011;SDS011;1009;51.436;6.972;2023-07-24T00:17:48;7.23;;;3.10;;
2011;SDS011;1009;51.436;6.972;2023-07-24T00:20:15;3.60;;;2.50;;
2011;SDS011;1009;51.436;6.972;2023-07-24T00:22:42;4.80;;;3.00;;
2011;SDS011;1009;51.436;6.972;2023-07-24T00:25:10;4.20;;;2.83;;
2011;SDS011;1009;51.436;6.972;2023-07-24T00:27:37;3.90;;;2.50;;
2011;SDS011;1009;51.436;6.972;2023-07-24T00:30:04;3.93;;;2.60;;
2011;SDS011;1009;51.436;6.972;2023-07-24T00:32:32;3.80;;;2.80;;
2011;SDS011;1009;51.436;6.972;2023-07-24T00:34:58;4.83;;;2.77;;
2011;SDS011;1009;51.436;6.972;2023-07-24T00:37:25;5.80;;;2.83;;
2011;SDS011;1009;51.436;6.972;2023-07-24T00:39:52;3.33;;;2.50;;
2011;SDS011;1009;51.436;6.972;2023-07-24T00:42:20;4.00;;;2.60;;
2011;SDS011;1009;51.436;6.972;2023-07-24T00:44:46;2.90;;;2.60;;
2011;SDS011;1009;51.436;6.972;2023-07-24T00:47:13;6.47;;;2.90;;
2011;SDS011;1009;51.436;6.972;2023-07-24T00:49:40;6.50;;;2.70;;
2011;SDS011;1009;51.436;6.972;2023-07-24T00:52:07;5.93;;;2.60;;
2011;SDS011;1009;51.436;6.972;2023-07-24T00:54:34;3.83;;;2.60;;
2011;SDS011;1009;51.436;6.972;2023-07-24T00:57:01;7.70;;;2.67;;
2011;SDS011;1009;51.436;6.972;2023-07-24T00:59:31;4.10;;;3.13;;
2011;SDS011;1009;51.436;6.972;2023-07-24T01:01:58;3.57;;;2.13;;
2011;SDS011;1009;51.436;6.972;2023-07-24T01:04:25;3.07;;;2.30;;
2011;SDS011;1009;51.436;6.972;2023-07-24T01:06:52;3.10;;;2.33;;
2011;SDS011;1009;51.436;6.972;2023-07-24T01:09:19;4.27;;;2.77;;
2011;SDS011;1009;51.436;6.972;2023-07-24T01:11:46;3.40;;;2.73;;
2011;SDS011;1009;51.436;6.972;2023-07-24T01:14:17;5.73;;;3.13;;
2011;SDS011;1009;51.436;6.972;2023-07-24T01:16:48;2.90;;;2.60;;
2011;SDS011;1009;51.436;6.972;2023-07-24T01:19:20;4.53;;;2.80;;
2011;SDS011;1009;51.436;6.972;2023-07-24T01:21:58;4.30;;;3.10;;
2011;SDS011;1009;51.436;6.972;2023-07-24T01:24:30;2.90;;;2.00;;
2011;SDS011;1009;51.436;6.972;2023-07-24T01:27:03;4.57;;;3.27;;
2011;SDS011;1009;51.436;6.972;2023-07-24T01:29:30;2.83;;;2.53;;
2011;SDS011;1009;51.436;6.972;2023-07-24T01:31:56;5.70;;;3.03;;
2011;SDS011;1009;51.436;6.972;2023-07-24T01:34:23;4.33;;;3.03;;
2011;SDS011;1009;51.436;6.972;2023-07-24T01:36:50;5.70;;;3.83;;
2011;SDS011;1009;51.436;6.972;2023-07-24T01:39:17;3.23;;;2.17;;
2011;SDS011;1009;51.436;6.972;2023-07-24T01:41:46;4.47;;;3.10;;
2011;SDS011;1009;51.436;6.972;2023-07-24T01:44:14;3.80;;;2.37;;
2011;SDS011;1009;51.436;6.972;2023-07-24T01:46:41;5.90;;;2.30;;
2011;SDS011;1009;51.436;6.972;2023-07-24T01:49:08;4.37;;;2.57;;
2011;SDS011;1009;51.436;6.972;2023-07-24T01:51:35;4.23;;;2.70;;
2011;SDS011;1009;51.436;6.972;2023-07-24T01:54:01;9.13;;;3.90;;
2011;SDS011;1009;51.436;6.972;2023-07-24T01:56:28;3.40;;;2.50;;
2011;SDS011;1009;51.436;6.972;2023-07-24T01:58:55;3.47;;;2.23;;
2011;SDS011;1009;51.436;6.972;2023-07-24T02:01:23;4.40;;;3.17;;
2011;SDS011;1009;51.436;6.972;2023-07-24T02:03:50;6.67;;;2.60;;
2011;SDS011;1009;51.436;6.972;2023-07-24T02:06:16;4.80;;;3.00;;
2011;SDS011;1009;51.436;6.972;2023-07-24T02:08:43;4.80;;;2.70;;
2011;SDS011;1009;51.436;6.972;2023-07-24T02:11:13;4.07;;;2.87;;
2011;SDS011;1009;51.436;6.972;2023-07-24T02:13:43;6.57;;;2.70;;
2011;SDS011;1009;51.436;6.972;2023-07-24T02:16:10;3.10;;;2.20;;
2011;SDS011;1009;51.436;6.972;2023-07-24T02:18:40;5.00;;;2.53;;
2011;SDS011;1009;51.436;6.972;2023-07-24T02:21:07;4.53;;;2.73;;
2011;SDS011;1009;51.436;6.972;2023-07-24T02:23:35;6.20;;;3.80;;
2011;SDS011;1009;51.436;6.972;2023-07-24T02:26:02;6.10;;;3.03;;
2011;SDS011;1009;51.436;6.972;2023-07-24T02:28:28;10.00;;;4.03;;
2011;SDS011;1009;51.436;6.972;2023-07-24T02:30:55;4.60;;;2.90;;
2011;SDS011;1009;51.436;6.972;2023-07-24T02:33:22;5.20;;;2.93;;
2011;SDS011;1009;51.436;6.972;2023-07-24T02:35:52;4.10;;;2.80;;
2011;SDS011;1009;51.436;6.972;2023-07-24T02:38:19;4.00;;;3.00;;
2011;SDS011;1009;51.436;6.972;2023-07-24T02:40:46;4.57;;;3.10;;
2011;SDS011;1009;51.436;6.972;2023-07-24T02:43:13;6.80;;;3.50;;
2011;SDS011;1009;51.436;6.972;2023-07-24T02:45:40;7.40;;;3.47;;
2011;SDS011;1009;51.436;6.972;2023-07-24T02:48:07;5.20;;;3.80;;
2011;SDS011;1009;51.436;6.972;2023-07-24T02:50:34;8.90;;;3.57;;
2011;SDS011;1009;51.436;6.972;2023-07-24T02:53:02;5.93;;;3.87;;
2011;SDS011;1009;51.436;6.972;2023-07-24T02:55:29;4.33;;;3.30;;
2011;SDS011;1009;51.436;6.972;2023-07-24T02:57:56;3.97;;;3.00;;
2011;SDS011;1009;51.436;6.972;2023-07-24T03:00:22;4.67;;;3.63;;
2011;SDS011;1009;51.436;6.972;2023-07-24T03:02:50;3.63;;;2.70;;
2011;SDS011;1009;51.436;6.972;2023-07-24T03:05:18;4.97;;;3.70;;
2011;SDS011;1009;51.436;6.972;2023-07-24T03:07:44;5.20;;;3.10;;
2011;SDS011;1009;51.436;6.972;2023-07-24T03:10:12;4.57;;;3.10;;
2011;SDS011;1009;51.436;6.972;2023-07-24T03:12:39;3.97;;;3.00;;
2011;SDS011;1009;51.436;6.972;2023-07-24T03:15:06;5.77;;;3.20;;
2011;SDS011;1009;51.436;6.972;2023-07-24T03:17:33;5.43;;;2.97;;
2011;SDS011;1009;51.436;6.972;2023-07-24T03:20:07;4.87;;;3.23;;
2011;SDS011;1009;51.436;6.972;2023-07-24T03:22:35;4.07;;;2.80;;
2011;SDS011;1009;51.436;6.972;2023-07-24T03:25:02;4.63;;;3.70;;
2011;SDS011;1009;51.436;6.972;2023-07-24T03:27:30;7.13;;;3.73;;
2011;SDS011;1009;51.436;6.972;2023-07-24T03:29:57;9.77;;;3.90;;
2011;SDS011;1009;51.436;6.972;2023-07-24T03:32:25;6.10;;;3.40;;
2011;SDS011;1009;51.436;6.972;2023-07-24T03:34:52;8.93;;;3.40;;
2011;SDS011;1009;51.436;6.972;2023-07-24T03:37:19;4.60;;;3.00;;
2011;SDS011;1009;51.436;6.972;2023-07-24T03:39:46;5.27;;;3.87;;
2011;SDS011;1009;51.436;6.972;2023-07-24T03:42:23;7.37;;;3.93;;
2011;SDS011;1009;51.436;6.972;2023-07-24T03:44:52;6.67;;;3.20;;
2011;SDS011;1009;51.436;6.972;2023-07-24T03:47:19;4.73;;;3.67;;
2011;SDS011;1009;51.436;6.972;2023-07-24T03:49:46;5.37;;;3.57;;
2011;SDS011;1009;51.436;6.972;2023-07-24T03:52:12;4.70;;;3.40;;
2011;SDS011;1009;51.436;6.972;2023-07-24T03:54:39;4.00;;;3.00;;
2011;SDS011;1009;51.436;6.972;2023-07-24T03:57:06;4.57;;;3.50;;
2011;SDS011;1009;51.436;6.972;2023-07-24T03:59:33;5.57;;;3.53;;
2011;SDS011;1009;51.436;6.972;2023-07-24T04:02:01;5.40;;;3.33;;
2011;SDS011;1009;51.436;6.972;2023-07-24T04:04:28;8.67;;;4.27;;
2011;SDS011;1009;51.436;6.972;2023-07-24T04:06:55;4.70;;;3.07;;
2011;SDS011;1009;51.436;6.972;2023-07-24T04:09:21;10.73;;;3.30;;
2011;SDS011;1009;51.436;6.972;2023-07-24T04:11:48;8.27;;;3.37;;
2011;SDS011;1009;51.436;6.972;2023-07-24T04:14:15;8.90;;;4.10;;
2011;SDS011;1009;51.436;6.972;2023-07-24T04:16:42;7.40;;;3.70;;
2011;SDS011;1009;51.436;6.972;2023-07-24T04:19:11;6.50;;;3.63;;
2011;SDS011;1009;51.436;6.972;2023-07-24T04:21:38;6.20;;;3.83;;
2011;SDS011;1009;51.436;6.972;2023-07-24T04:24:05;6.10;;;3.13;;
2011;SDS011;1009;51.436;6.972;2023-07-24T04:26:32;5.10;;;3.87;;
2011;SDS011;1009;51.436;6.972;2023-07-24T04:28:58;5.73;;;3.37;;
2011;SDS011;1009;51.436;6.972;2023-07-24T04:31:25;5.90;;;3.70;;
2011;SDS011;1009;51.436;6.972;2023-07-24T04:33:52;5.20;;;3.30;;
2011;SDS011;1009;51.436;6.972;2023-07-24T04:36:20;6.83;;;4.10;;
2011;SDS011;1009;51.436;6.972;2023-07-24T04:38:47;5.90;;;4.30;;
2011;SDS011;1009;51.436;6.972;2023-07-24T04:41:13;6.00;;;3.83;;
2011;SDS011;1009;51.436;6.972;2023-07-24T04:43:41;4.77;;;2.97;;
2011;SDS011;1009;51.436;6.972;2023-07-24T04:46:07;7.30;;;4.57;;
2011;SDS011;1009;51.436;6.972;2023-07-24T04:48:34;8.07;;;3.80;;
2011;SDS011;1009;51.436;6.972;2023-07-24T04:51:01;3.83;;;3.20;;
2011;SDS011;1009;51.436;6.972;2023-07-24T04:53:29;7.17;;;3.60;;
2011;SDS011;1009;51.436;6.972;2023-07-24T04:55:56;5.53;;;3.70;;
2011;SDS011;1009;51.436;6.972;2023-07-24T04:58:23;10.20;;;3.70;;
2011;SDS011;1009;51.436;6.972;2023-07-24T05:00:50;6.17;;;3.73;;
2011;SDS011;1009;51.436;6.972;2023-07-24T05:03:16;4.63;;;3.10;;
2011;SDS011;1009;51.436;6.972;2023-07-24T05:05:47;6.67;;;4.47;;
2011;SDS011;1009;51.436;6.972;2023-07-24T05:08:14;6.43;;;3.80;;
2011;SDS011;1009;51.436;6.972;2023-07-24T05:10:42;8.47;;;4.50;;
2011;SDS011;1009;51.436;6.972;2023-07-24T05:13:09;5.63;;;3.90;;
2011;SDS011;1009;51.436;6.972;2023-07-24T05:15:35;6.03;;;3.40;;
2011;SDS011;1009;51.436;6.972;2023-07-24T05:18:02;5.17;;;3.60;;
2011;SDS011;1009;51.436;6.972;2023-07-24T05:20:29;5.73;;;3.33;;
2011;SDS011;1009;51.436;6.972;2023-07-24T05:22:56;5.17;;;4.10;;
2011;SDS011;1009;51.436;6.972;2023-07-24T05:25:22;6.90;;;4.83;;
2011;SDS011;1009;51.436;6.972;2023-07-24T05:27:50;4.77;;;3.57;;
2011;SDS011;1009;51.436;6.972;2023-07-24T05:30:17;8.80;;;4.00;;
2011;SDS011;1009;51.436;6.972;2023-07-24T05:32:44;8.40;;;4.20;;
2011;SDS011;1009;51.436;6.972;2023-07-24T05:35:11;6.57;;;4.97;;
2011;SDS011;1009;51.436;6.972;2023-07-24T05:37:37;7.10;;;4.50;;
2011;SDS011;1009;51.436;6.972;2023-07-24T05:40:05;8.70;;;4.87;;
2011;SDS011;1009;51.436;6.972;2023-07-24T05:42:32;6.00;;;3.60;;
2011;SDS011;1009;51.436;6.972;2023-07-24T05:45:06;10.93;;;4.00;;
2011;SDS011;1009;51.436;6.972;2023-07-24T05:47:34;5.90;;;4.03;;
2011;SDS011;1009;51.436;6.972;2023-07-24T05:50:01;8.50;;;4.53;;
2011;SDS011;1009;51.436;6.972;2023-07-24T05:52:28;6.73;;;4.03;;
2011;SDS011;1009;51.436;6.972;2023-07-24T05:54:55;10.60;;;4.83;;
2011;SDS011;1009;51.436;6.972;2023-07-24T05:57:22;6.57;;;4.13;;
2011;SDS011;1009;51.436;6.972;2023-07-24T05:59:48;8.43;;;5.00;;
2011;SDS011;1009;51.436;6.972;2023-07-24T06:02:18;7.60;;;4.00;;
2011;SDS011;1009;51.436;6.972;2023-07-24T06:04:45;6.50;;;3.70;;
2011;SDS011;1009;51.436;6.972;2023-07-24T06:07:12;6.97;;;4.30;;
2011;SDS011;1009;51.436;6.972;2023-07-24T06:09:38;11.80;;;4.27;;
2011;SDS011;1009;51.436;6.972;2023-07-24T06:12:05;7.77;;;4.70;;
2011;SDS011;1009;51.436;6.972;2023-07-24T06:14:32;7.37;;;4.13;;
2011;SDS011;1009;51.436;6.972;2023-07-24T06:16:59;11.70;;;4.50;;
2011;SDS011;1009;51.436;6.972;2023-07-24T06:19:27;6.97;;;3.63;;
2011;SDS011;1009;51.436;6.972;2023-07-24T06:21:54;7.13;;;4.17;;
2011;SDS011;1009;51.436;6.972;2023-07-24T06:24:21;5.00;;;3.47;;
2011;SDS011;1009;51.436;6.972;2023-07-24T06:26:48;9.23;;;5.23;;
2011;SDS011;1009;51.436;6.972;2023-07-24T06:29:15;6.87;;;3.87;;
2011;SDS011;1009;51.436;6.972;2023-07-24T06:31:42;7.63;;;4.30;;
2011;SDS011;1009;51.436;6.972;2023-07-24T06:34:09;5.83;;;3.47;;
2011;SDS011;1009;51.436;6.972;2023-07-24T06:36:37;6.73;;;4.23;;
2011;SDS011;1009;51.436;6.972;2023-07-24T06:39:03;5.00;;;3.20;;
2011;SDS011;1009;51.436;6.972;2023-07-24T06:41:30;8.10;;;3.90;;
2011;SDS011;1009;51.436;6.972;2023-07-24T06:43:57;5.27;;;3.40;;
2011;SDS011;1009;51.436;6.972;2023-07-24T06:46:24;9.77;;;4.73;;
2011;SDS011;1009;51.436;6.972;2023-07-24T06:48:51;7.20;;;4.00;;
2011;SDS011;1009;51.436;6.972;2023-07-24T06:51:17;8.90;;;4.23;;
2011;SDS011;1009;51.436;6.972;2023-07-24T06:53:45;6.80;;;3.87;;
2011;SDS011;1009;51.436;6.972;2023-07-24T06:56:12;4.63;;;2.83;;
2011;SDS011;1009;51.436;6.972;2023-07-24T06:58:39;7.47;;;4.40;;
2011;SDS011;1009;51.436;6.972;2023-07-24T07:01:06;6.50;;;3.90;;
2011;SDS011;1009;51.436;6.972;2023-07-24T07:03:32;5.50;;;3.77;;
2011;SDS011;1009;51.436;6.972;2023-07-24T07:06:01;7.80;;;3.40;;
2011;SDS011;1009;51.436;6.972;2023-07-24T07:08:28;7.10;;;3.57;;
2011;SDS011;1009;51.436;6.972;2023-07-24T07:10:57;5.77;;;3.67;;
2011;SDS011;1009;51.436;6.972;2023-07-24T07:13:24;6.90;;;4.27;;
2011;SDS011;1009;51.436;6.972;2023-07-24T07:15:50;6.87;;;3.83;;
2011;SDS011;1009;51.436;6.972;2023-07-24T07:18:18;5.73;;;3.87;;
2011;SDS011;1009;51.436;6.972;2023-07-24T07:20:45;3.53;;;2.80;;
2011;SDS011;1009;51.436;6.972;2023-07-24T07:23:12;5.63;;;3.27;;
2011;SDS011;1009;51.436;6.972;2023-07-24T07:25:39;5.63;;;3.67;;
2011;SDS011;1009;51.436;6.972;2023-07-24T07:28:09;6.07;;;3.60;;
2011;SDS011;1009;51.436;6.972;2023-07-24T07:30:36;5.00;;;3.50;;
2011;SDS011;1009;51.436;6.972;2023-07-24T07:33:03;6.23;;;4.00;;
2011;SDS011;1009;51.436;6.972;2023-07-24T07:35:30;6.53;;;3.63;;
2011;SDS011;1009;51.436;6.972;2023-07-24T07:37:58;5.80;;;3.93;;
2011;SDS011;1009;51.436;6.972;2023-07-24T07:40:24;5.63;;;3.27;;
2011;SDS011;1009;51.436;6.972;2023-07-24T07:42:52;4.03;;;2.83;;
2011;SDS011;1009;51.436;6.972;2023-07-24T07:45:20;5.17;;;3.47;;
2011;SDS011;1009;51.436;6.972;2023-07-24T07:47:47;3.80;;;3.20;;
2011;SDS011;1009;51.436;6.972;2023-07-24T07:50:14;6.03;;;3.93;;
2011;SDS011;1009;51.436;6.972;2023-07-24T07:52:41;5.30;;;3.13;;
2011;SDS011;1009;51.436;6.972;2023-07-24T07:55:08;7.03;;;3.83;;
2011;SDS011;1009;51.436;6.972;2023-07-24T07:57:36;4.83;;;3.20;;
2011;SDS011;1009;51.436;6.972;2023-07-24T08:00:03;6.60;;;3.90;;
2011;SDS011;1009;51.436;6.972;2023-07-24T08:02:32;5.40;;;3.70;;
2011;SDS011;1009;51.436;6.972;2023-07-24T08:04:59;7.13;;;3.67;;
2011;SDS011;1009;51.436;6.972;2023-07-24T08:07:26;4.20;;;3.30;;
2011;SDS011;1009;51.436;6.972;2023-07-24T08:09:53;5.67;;;3.43;;
2011;SDS011;1009;51.436;6.972;2023-07-24T08:12:21;5.90;;;3.50;;
2011;SDS011;1009;51.436;6.972;2023-07-24T08:14:48;3.80;;;2.97;;
2011;SDS011;1009;51.436;6.972;2023-07-24T08:17:15;5.00;;;3.20;;
2011;SDS011;1009;51.436;6.972;2023-07-24T08:19:43;6.43;;;3.67;;
2011;SDS011;1009;51.436;6.972;2023-07-24T08:22:09;5.03;;;3.57;;
2011;SDS011;1009;51.436;6.972;2023-07-24T08:24:37;4.07;;;3.13;;
2011;SDS011;1009;51.436;6.972;2023-07-24T08:27:04;5.73;;;4.77;;
2011;SDS011;1009;51.436;6.972;2023-07-24T08:29:31;6.53;;;3.50;;
2011;SDS011;1009;51.436;6.972;2023-07-24T08:31:58;7.23;;;3.70;;
2011;SDS011;1009;51.436;6.972;2023-07-24T08:34:25;5.00;;;3.30;;
2011;SDS011;1009;51.436;6.972;2023-07-24T08:36:53;6.93;;;4.17;;
2011;SDS011;1009;51.436;6.972;2023-07-24T08:39:19;4.70;;;3.70;;
2011;SDS011;1009;51.436;6.972;2023-07-24T08:41:46;8.10;;;3.20;;
2011;SDS011;1009;51.436;6.972;2023-07-24T08:44:13;5.43;;;3.83;;
2011;SDS011;1009;51.436;6.972;2023-07-24T08:46:40;4.27;;;3.27;;
2011;SDS011;1009;51.436;6.972;2023-07-24T08:49:11;3.43;;;3.07;;
2011;SDS011;1009;51.436;6.972;2023-07-24T08:51:38;4.43;;;3.13;;
2011;SDS011;1009;51.436;6.972;2023-07-24T08:54:08;3.83;;;2.90;;
2011;SDS011;1009;51.436;6.972;2023-07-24T08:56:35;3.13;;;2.40;;
2011;SDS011;1009;51.436;6.972;2023-07-24T08:59:03;3.37;;;3.07;;
2011;SDS011;1009;51.436;6.972;2023-07-24T09:01:30;5.30;;;3.30;;
2011;SDS011;1009;51.436;6.972;2023-07-24T09:03:57;5.40;;;2.67;;
2011;SDS011;1009;51.436;6.972;2023-07-24T09:06:23;4.60;;;2.77;;
2011;SDS011;1009;51.436;6.972;2023-07-24T09:08:53;4.67;;;2.03;;
2011;SDS011;1009;51.436;6.972;2023-07-24T09:11:21;3.40;;;2.70;;
2011;SDS011;1009;51.436;6.972;2023-07-24T09:13:48;3.67;;;3.03;;
2011;SDS011;1009;51.436;6.972;2023-07-24T09:16:22;3.00;;;2.20;;
2011;SDS011;1009;51.436;6.972;2023-07-24T09:18:50;3.33;;;2.47;;
2011;SDS011;1009;51.436;6.972;2023-07-24T09:21:26;2.30;;;1.80;;
2011;SDS011;1009;51.436;6.972;2023-07-24T09:23:54;2.60;;;2.10;;
2011;SDS011;1009;51.436;6.972;2023-07-24T09:26:23;2.93;;;1.90;;
2011;SDS011;1009;51.436;6.972;2023-07-24T09:28:53;2.97;;;2.00;;
2011;SDS011;1009;51.436;6.972;2023-07-24T09:31:20;2.33;;;2.13;;
2011;SDS011;1009;51.436;6.972;2023-07-24T09:33:47;2.37;;;2.00;;
2011;SDS011;1009;51.436;6.972;2023-07-24T09:36:13;3.30;;;2.57;;
2011;SDS011;1009;51.436;6.972;2023-07-24T09:38:40;4.20;;;3.20;;
2011;SDS011;1009;51.436;6.972;2023-07-24T09:41:08;3.23;;;2.20;;
2011;SDS011;1009;51.436;6.972;2023-07-24T09:43:36;3.83;;;2.00;;
2011;SDS011;1009;51.436;6.972;2023-07-24T09:46:04;3.23;;;2.40;;
2011;SDS011;1009;51.436;6.972;2023-07-24T09:48:31;2.80;;;2.37;;
2011;SDS011;1009;51.436;6.972;2023-07-24T09:50:59;2.97;;;2.03;;
2011;SDS011;1009;51.436;6.972;2023-07-24T09:53:29;3.17;;;1.70;;
2011;SDS011;1009;51.436;6.972;2023-07-24T09:56:02;2.73;;;2.33;;
2011;SDS011;1009;51.436;6.972;2023-07-24T09:58:30;3.00;;;2.43;;
2011;SDS011;1009;51.436;6.972;2023-07-24T10:01:01;2.70;;;1.83;;
2011;SDS011;1009;51.436;6.972;2023-07-24T10:03:28;2.10;;;1.77;;
2011;SDS011;1009;51.436;6.972;2023-07-24T10:05:56;3.43;;;2.50;;
2011;SDS011;1009;51.436;6.972;2023-07-24T10:08:23;2.40;;;1.90;;
2011;SDS011;1009;51.436;6.972;2023-07-24T10:10:51;2.27;;;1.93;;
2011;SDS011;1009;51.436;6.972;2023-07-24T10:13:18;3.57;;;2.50;;
2011;SDS011;1009;51.436;6.972;2023-07-24T10:15:48;3.20;;;2.63;;
2011;SDS011;1009;51.436;6.972;2023-07-24T10:18:17;4.00;;;2.60;;
2011;SDS011;1009;51.436;6.972;2023-07-24T10:20:44;3.97;;;2.50;;
2011;SDS011;1009;51.436;6.972;2023-07-24T10:23:16;4.67;;;2.57;;
2011;SDS011;1009;51.436;6.972;2023-07-24T10:25:45;2.57;;;2.37;;
2011;SDS011;1009;51.436;6.972;2023-07-24T10:28:12;3.60;;;2.53;;
2011;SDS011;1009;51.436;6.972;2023-07-24T10:30:43;3.17;;;2.70;;
2011;SDS011;1009;51.436;6.972;2023-07-24T10:33:11;2.87;;;2.50;;
2011;SDS011;1009;51.436;6.972;2023-07-24T10:35:41;3.50;;;2.57;;
2011;SDS011;1009;51.436;6.972;2023-07-24T10:38:11;3.27;;;2.30;;
2011;SDS011;1009;51.436;6.972;2023-07-24T10:40:39;3.83;;;2.47;;
2011;SDS011;1009;51.436;6.972;2023-07-24T10:43:07;3.37;;;2.50;;
2011;SDS011;1009;51.436;6.972;2023-07-24T10:45:38;4.53;;;2.60;;
2011;SDS011;1009;51.436;6.972;2023-07-24T10:48:11;3.03;;;2.73;;
2011;SDS011;1009;51.436;6.972;2023-07-24T10:50:41;4.23;;;3.07;;
2011;SDS011;1009;51.436;6.972;2023-07-24T10:53:09;3.27;;;2.90;;
2011;SDS011;1009;51.436;6.972;2023-07-24T10:55:36;3.47;;;3.03;;
2011;SDS011;1009;51.436;6.972;2023-07-24T10:58:03;5.00;;;2.93;;
2011;SDS011;1009;51.436;6.972;2023-07-24T11:00:29;4.73;;;3.43;;
2011;SDS011;1009;51.436;6.972;2023-07-24T11:02:56;2.70;;;2.43;;
2011;SDS011;1009;51.436;6.972;2023-07-24T11:05:23;3.80;;;2.67;;
2011;SDS011;1009;51.436;6.972;2023-07-24T11:07:51;4.57;;;2.80;;
2011;SDS011;1009;51.436;6.972;2023-07-24T11:10:19;4.70;;;3.80;;
2011;SDS011;1009;51.436;6.972;2023-07-24T11:12:47;5.07;;;3.47;;
2011;SDS011;1009;51.436;6.972;2023-07-24T11:15:15;4.50;;;3.40;;
2011;SDS011;1009;51.436;6.972;2023-07-24T11:17:42;4.00;;;2.60;;
2011;SDS011;1009;51.436;6.972;2023-07-24T11:20:09;4.73;;;2.80;;
2011;SDS011;1009;51.436;6.972;2023-07-24T11:22:38;3.27;;;2.90;;
2011;SDS011;1009;51.436;6.972;2023-07-24T11:25:07;3.97;;;3.17;;
2011;SDS011;1009;51.436;6.972;2023-07-24T11:27:37;4.40;;;2.60;;
2011;SDS011;1009;51.436;6.972;2023-07-24T11:30:07;4.27;;;3.60;;
2011;SDS011;1009;51.436;6.972;2023-07-24T11:32:34;4.20;;;3.30;;
2011;SDS011;1009;51.436;6.972;2023-07-24T11:35:01;4.60;;;3.70;;
2011;SDS011;1009;51.436;6.972;2023-07-24T11:37:29;4.70;;;3.10;;
2011;SDS011;1009;51.436;6.972;2023-07-24T11:39:56;6.97;;;4.07;;
2011;SDS011;1009;51.436;6.972;2023-07-24T11:42:26;5.03;;;3.70;;
2011;SDS011;1009;51.436;6.972;2023-07-24T11:44:53;5.77;;;4.17;;
2011;SDS011;1009;51.436;6.972;2023-07-24T11:47:20;6.47;;;4.27;;
2011;SDS011;1009;51.436;6.972;2023-07-24T11:49:56;3.57;;;2.00;;
2011;SDS011;1009;51.436;6.972;2023-07-24T11:52:23;2.37;;;2.03;;
2011;SDS011;1009;51.436;6.972;2023-07-24T11:54:56;1.97;;;1.27;;
2011;SDS011;1009;51.436;6.972;2023-07-24T11:57:27;2.17;;;1.37;;
2011;SDS011;1009;51.436;6.972;2023-07-24T11:59:54;3.10;;;1.10;;
2011;SDS011;1009;51.436;6.972;2023-07-24T12:02:23;1.40;;;0.90;;
2011;SDS011;1009;51.436;6.972;2023-07-24T12:04:55;1.57;;;0.90;;
2011;SDS011;1009;51.436;6.972;2023-07-24T12:07:24;2.17;;;1.00;;
2011;SDS011;1009;51.436;6.972;2023-07-24T12:09:56;1.30;;;0.73;;
2011;SDS011;1009;51.436;6.972;2023-07-24T12:12:22;1.60;;;0.80;;
2011;SDS011;1009;51.436;6.972;2023-07-24T12:15:02;2.23;;;1.10;;
2011;SDS011;1009;51.436;6.972;2023-07-24T12:17:30;1.90;;;1.27;;
2011;SDS011;1009;51.436;6.972;2023-07-24T12:19:57;4.00;;;1.37;;
2011;SDS011;1009;51.436;6.972;2023-07-24T12:22:23;2.97;;;1.03;;
2011;SDS011;1009;51.436;6.972;2023-07-24T12:24:50;3.60;;;1.60;;
2011;SDS011;1009;51.436;6.972;2023-07-24T12:27:17;1.20;;;0.97;;
2011;SDS011;1009;51.436;6.972;2023-07-24T12:29:43;3.43;;;1.00;;
2011;SDS011;1009;51.436;6.972;2023-07-24T12:32:11;1.43;;;0.67;;
2011;SDS011;1009;51.436;6.972;2023-07-24T12:34:38;2.37;;;1.50;;
2011;SDS011;1009;51.436;6.972;2023-07-24T12:37:05;2.07;;;1.20;;
2011;SDS011;1009;51.436;6.972;2023-07-24T12:39:32;1.27;;;1.00;;
2011;SDS011;1009;51.436;6.972;2023-07-24T12:41:58;2.30;;;1.10;;
2011;SDS011;1009;51.436;6.972;2023-07-24T12:44:25;1.27;;;0.73;;
2011;SDS011;1009;51.436;6.972;2023-07-24T12:46:52;3.87;;;1.03;;
2011;SDS011;1009;51.436;6.972;2023-07-24T12:49:20;1.23;;;0.90;;
2011;SDS011;1009;51.436;6.972;2023-07-24T12:51:47;2.47;;;1.00;;
2011;SDS011;1009;51.436;6.972;2023-07-24T12:54:14;1.13;;;1.03;;
2011;SDS011;1009;51.436;6.972;2023-07-24T12:56:40;1.50;;;0.83;;
2011;SDS011;1009;51.436;6.972;2023-07-24T12:59:07;1.50;;;1.03;;
2011;SDS011;1009;51.436;6.972;2023-07-24T13:01:34;1.07;;;0.97;;
2011;SDS011;1009;51.436;6.972;2023-07-24T13:04:00;1.60;;;0.97;;
2011;SDS011;1009;51.436;6.972;2023-07-24T13:06:28;1.67;;;1.20;;
2011;SDS011;1009;51.436;6.972;2023-07-24T13:08:55;2.03;;;1.07;;
2011;SDS011;1009;51.436;6.972;2023-07-24T13:11:22;3.00;;;1.40;;
2011;SDS011;1009;51.436;6.972;2023-07-24T13:13:49;2.10;;;1.17;;
2011;SDS011;1009;51.436;6.972;2023-07-24T13:16:16;1.70;;;1.40;;
2011;SDS011;1009;51.436;6.972;2023-07-24T13:18:43;1.93;;;1.30;;
2011;SDS011;1009;51.436;6.972;2023-07-24T13:21:10;2.10;;;1.03;;
2011;SDS011;1009;51.436;6.972;2023-07-24T13:23:38;2.40;;;1.20;;
2011;SDS011;1009;51.436;6.972;2023-07-24T13:26:04;1.77;;;1.40;;
2011;SDS011;1009;51.436;6.972;2023-07-24T13:28:32;2.20;;;1.57;;
2011;SDS011;1009;51.436;6.972;2023-07-24T13:31:10;2.10;;;1.90;;
2011;SDS011;1009;51.436;6.972;2023-07-24T13:33:37;2.00;;;1.80;;
2011;SDS011;1009;51.436;6.972;2023-07-24T13:36:04;2.43;;;1.87;;
2011;SDS011;1009;51.436;6.972;2023-07-24T13:38:30;2.10;;;1.90;;
2011;SDS011;1009;51.436;6.972;2023-07-24T13:40:59;2.33;;;1.50;;
2011;SDS011;1009;51.436;6.972;2023-07-24T13:43:26;2.67;;;2.07;;
2011;SDS011;1009;51.436;6.972;2023-07-24T13:45:53;3.37;;;2.17;;
2011;SDS011;1009;51.436;6.972;2023-07-24T13:48:20;2.70;;;1.90;;
2011;SDS011;1009;51.436;6.972;2023-07-24T13:50:47;4.23;;;1.90;;
2011;SDS011;1009;51.436;6.972;2023-07-24T13:53:13;3.70;;;1.90;;
2011;SDS011;1009;51.436;6.972;2023-07-24T13:55:40;2.23;;;1.80;;
2011;SDS011;1009;51.436;6.972;2023-07-24T13:58:08;3.13;;;2.27;;
2011;SDS011;1009;51.436;6.972;2023-07-24T14:00:35;3.63;;;2.23;;
2011;SDS011;1009;51.436;6.972;2023-07-24T14:03:02;3.20;;;1.70;;
2011;SDS011;1009;51.436;6.972;2023-07-24T14:05:29;2.27;;;1.70;;
2011;SDS011;1009;51.436;6.972;2023-07-24T14:07:56;2.97;;;2.13;;
2011;SDS011;1009;51.436;6.972;2023-07-24T14:10:22;2.67;;;2.07;;
2011;SDS011;1009;51.436;6.972;2023-07-24T14:12:49;2.93;;;2.10;;
2011;SDS011;1009;51.436;6.972;2023-07-24T14:15:18;2.73;;;2.50;;
2011;SDS011;1009;51.436;6.972;2023-07-24T14:17:44;3.97;;;2.40;;
2011;SDS011;1009;51.436;6.972;2023-07-24T14:20:11;3.27;;;2.17;;
2011;SDS011;1009;51.436;6.972;2023-07-24T14:22:38;3.50;;;2.37;;
2011;SDS011;1009;51.436;6.972;2023-07-24T14:25:05;3.47;;;3.03;;
2011;SDS011;1009;51.436;6.972;2023-07-24T14:27:33;2.30;;;1.90;;
2011;SDS011;1009;51.436;6.972;2023-07-24T14:30:00;3.80;;;2.90;;
2011;SDS011;1009;51.436;6.972;2023-07-24T14:32:28;3.20;;;2.80;;
2011;SDS011;1009;51.436;6.972;2023-07-24T14:34:55;3.13;;;2.83;;
2011;SDS011;1009;51.436;6.972;2023-07-24T14:37:22;3.13;;;2.83;;
2011;SDS011;1009;51.436;6.972;2023-07-24T14:39:51;4.13;;;3.50;;
2011;SDS011;1009;51.436;6.972;2023-07-24T14:42:17;4.20;;;2.90;;
2011;SDS011;1009;51.436;6.972;2023-07-24T14:44:44;10.43;;;3.00;;
2011;SDS011;1009;51.436;6.972;2023-07-24T14:47:11;3.70;;;3.03;;
2011;SDS011;1009;51.436;6.972;2023-07-24T14:49:42;3.30;;;2.80;;
2011;SDS011;1009;51.436;6.972;2023-07-24T14:52:08;3.47;;;3.13;;
2011;SDS011;1009;51.436;6.972;2023-07-24T14:54:36;2.57;;;2.37;;
2011;SDS011;1009;51.436;6.972;2023-07-24T14:57:03;3.60;;;2.40;;
2011;SDS011;1009;51.436;6.972;2023-07-24T14:59:30;2.67;;;2.40;;
2011;SDS011;1009;51.436;6.972;2023-07-24T15:01:56;3.40;;;2.90;;
2011;SDS011;1009;51.436;6.972;2023-07-24T15:04:23;3.63;;;2.90;;
2011;SDS011;1009;51.436;6.972;2023-07-24T15:06:51;3.27;;;2.63;;
2011;SDS011;1009;51.436;6.972;2023-07-24T15:09:18;6.10;;;3.20;;
2011;SDS011;1009;51.436;6.972;2023-07-24T15:11:45;2.27;;;2.07;;
2011;SDS011;1009;51.436;6.972;2023-07-24T15:14:11;2.47;;;1.60;;
2011;SDS011;1009;51.436;6.972;2023-07-24T15:16:38;2.17;;;1.90;;